createdAt,value
2022-12-08T00:00:38.679Z,557.2
2022-12-08T00:01:40.968Z,557
2022-12-08T00:02:43.787Z,557
2022-12-08T00:03:46.035Z,557.4
2022-12-08T00:04:47.830Z,557.6
2022-12-08T00:05:49.652Z,557.2
2022-12-08T00:06:51.332Z,557
2022-12-08T00:07:53.445Z,557.3
2022-12-08T00:08:55.276Z,556.9
2022-12-08T00:09:57.193Z,556.8
2022-12-08T00:10:58.991Z,556.2
2022-12-08T00:12:00.869Z,555.6
2022-12-08T00:13:02.635Z,555
2022-12-08T00:14:04.375Z,554.5
2022-12-08T00:15:07.122Z,554
2022-12-08T00:16:09.105Z,553.9
2022-12-08T00:17:10.801Z,553.6
2022-12-08T00:18:12.537Z,553.8
2022-12-08T00:19:14.216Z,553.7
2022-12-08T00:20:16.074Z,553.1
2022-12-08T00:21:17.782Z,553.5
2022-12-08T00:22:19.426Z,553.6
2022-12-08T00:23:21.415Z,553.5
2022-12-08T00:24:23.061Z,553.4
2022-12-08T00:25:25.041Z,552.8
2022-12-08T00:26:26.860Z,552.4
2022-12-08T00:27:28.630Z,552.6
2022-12-08T00:28:30.460Z,552.8
2022-12-08T00:29:32.230Z,552.5
2022-12-08T00:30:34.179Z,552.9
2022-12-08T00:31:36.424Z,552.6
2022-12-08T00:32:38.192Z,552.4
2022-12-08T00:33:39.863Z,552.4
2022-12-08T00:34:41.560Z,552.1
2022-12-08T00:35:44.027Z,552.5
2022-12-08T00:36:45.767Z,552.4
2022-12-08T00:37:47.616Z,552.5
2022-12-08T00:38:49.365Z,552.8
2022-12-08T00:39:51.121Z,552.8
2022-12-08T00:40:53.092Z,553.3
2022-12-08T00:41:54.839Z,553.4
2022-12-08T00:42:56.780Z,552.7
2022-12-08T00:43:58.549Z,552.8
2022-12-08T00:45:00.268Z,552.6
2022-12-08T00:46:02.614Z,552.6
2022-12-08T00:47:04.473Z,552.6
2022-12-08T00:48:06.324Z,552.8
2022-12-08T00:49:08.072Z,552.5
2022-12-08T00:50:09.918Z,552.6
2022-12-08T00:51:11.772Z,552.3
2022-12-08T00:52:13.722Z,552.4
2022-12-08T00:53:15.477Z,551.9
2022-12-08T00:54:17.337Z,551.8
2022-12-08T00:55:19.171Z,551.3
2022-12-08T00:56:21.052Z,551.3
2022-12-08T00:57:22.817Z,551.4
2022-12-08T00:58:24.731Z,551.5
2022-12-08T00:59:26.470Z,551.6
2022-12-08T01:00:28.112Z,550.8
2022-12-08T01:01:33.168Z,550.9
2022-12-08T01:02:35.015Z,550.7
2022-12-08T01:03:37.061Z,550.8
2022-12-08T01:04:38.698Z,551.1
2022-12-08T01:05:40.535Z,551.1
2022-12-08T01:06:42.286Z,551.7
2022-12-08T01:07:44.322Z,551.6
2022-12-08T01:08:46.108Z,552
2022-12-08T01:09:47.938Z,552.6
2022-12-08T01:10:49.727Z,552.7
2022-12-08T01:11:51.573Z,552.9
2022-12-08T01:12:53.310Z,552.6
2022-12-08T01:13:55.108Z,553.1
2022-12-08T01:15:03.347Z,553
2022-12-08T01:16:05.204Z,552.7
2022-12-08T01:17:07.426Z,552.7
2022-12-08T01:18:09.300Z,552.4
2022-12-08T01:19:11.040Z,552.1
2022-12-08T01:20:12.812Z,552.2
2022-12-08T01:21:14.411Z,552
2022-12-08T01:22:16.053Z,551.8
2022-12-08T01:23:17.933Z,551.4
2022-12-08T01:24:19.886Z,551.3
2022-12-08T01:25:21.730Z,551.8
2022-12-08T01:26:23.373Z,551.9
2022-12-08T01:27:25.227Z,551.7
2022-12-08T01:28:27.009Z,551.6
2022-12-08T01:29:28.807Z,551.2
2022-12-08T01:30:30.898Z,551.1
2022-12-08T01:31:32.650Z,551.1
2022-12-08T01:32:34.309Z,551.7
2022-12-08T01:33:36.125Z,551.9
2022-12-08T01:34:37.997Z,552.1
2022-12-08T01:35:39.763Z,552.1
2022-12-08T01:36:41.497Z,552.7
2022-12-08T01:37:43.231Z,553.1
2022-12-08T01:38:45.071Z,553.1
2022-12-08T01:39:46.838Z,553.4
2022-12-08T01:40:48.484Z,553.7
2022-12-08T01:41:50.308Z,553.3
2022-12-08T01:42:52.082Z,553.3
2022-12-08T01:43:53.824Z,553.5
2022-12-08T01:44:55.732Z,553.6
2022-12-08T01:45:57.621Z,553.9
2022-12-08T01:46:59.453Z,553.6
2022-12-08T01:48:01.647Z,553.2
2022-12-08T01:49:03.564Z,553.2
2022-12-08T01:50:06.968Z,553.8
2022-12-08T01:51:08.933Z,553.9
2022-12-08T01:52:10.766Z,554.2
2022-12-08T01:53:12.598Z,555
2022-12-08T01:54:14.358Z,555.2
2022-12-08T01:55:16.200Z,555.4
2022-12-08T01:56:17.975Z,555.8
2022-12-08T01:57:19.811Z,555.7
2022-12-08T01:58:21.679Z,556.1
2022-12-08T01:59:23.507Z,556.2
2022-12-08T02:00:25.365Z,556.1
2022-12-08T02:01:27.523Z,556
2022-12-08T02:02:29.632Z,556.1
2022-12-08T02:03:31.335Z,556.7
2022-12-08T02:04:33.097Z,557.1
2022-12-08T02:05:34.809Z,556.9
2022-12-08T02:06:36.582Z,556.7
2022-12-08T02:07:38.647Z,556.3
2022-12-08T02:08:40.373Z,555.9
2022-12-08T02:09:42.109Z,556
2022-12-08T02:10:43.772Z,555.9
2022-12-08T02:11:45.603Z,556
2022-12-08T02:12:47.544Z,556.2
2022-12-08T02:13:49.426Z,556.2
2022-12-08T02:14:51.168Z,556.1
2022-12-08T02:15:53.251Z,556.1
2022-12-08T02:16:55.152Z,556.1
2022-12-08T02:17:56.905Z,556.1
2022-12-08T02:19:32.421Z,556
2022-12-08T02:20:34.388Z,555.7
2022-12-08T02:21:36.164Z,555.9
2022-12-08T02:22:37.986Z,555.7
2022-12-08T02:23:39.755Z,555.6
2022-12-08T02:24:44.380Z,555.2
2022-12-08T02:25:46.208Z,555.5
2022-12-08T02:26:47.946Z,555.7
2022-12-08T02:27:49.809Z,555.6
2022-12-08T02:28:51.757Z,555.3
2022-12-08T02:29:53.607Z,555.5
2022-12-08T02:30:55.870Z,555.9
2022-12-08T02:31:57.735Z,555.8
2022-12-08T02:32:59.562Z,556
2022-12-08T02:34:01.436Z,556.4
2022-12-08T02:35:03.268Z,555.8
2022-12-08T02:36:05.081Z,555.7
2022-12-08T02:37:06.771Z,555
2022-12-08T02:38:08.695Z,554.6
2022-12-08T02:39:10.413Z,554.5
2022-12-08T02:40:12.055Z,554.8
2022-12-08T02:41:13.779Z,555
2022-12-08T02:42:15.608Z,555.3
2022-12-08T02:43:17.565Z,554.9
2022-12-08T02:44:19.510Z,555.2
2022-12-08T02:45:21.275Z,554.7
2022-12-08T02:46:23.351Z,554.8
2022-12-08T02:47:25.356Z,554.6
2022-12-08T02:48:27.270Z,554.8
2022-12-08T02:49:28.960Z,555.2
2022-12-08T02:50:33.879Z,555.5
2022-12-08T02:51:35.734Z,555.6
2022-12-08T02:52:37.553Z,556.2
2022-12-08T02:53:39.172Z,555.9
2022-12-08T02:54:40.969Z,556.2
2022-12-08T02:55:42.823Z,556.1
2022-12-08T02:56:44.570Z,556.2
2022-12-08T02:57:46.345Z,556.1
2022-12-08T02:58:48.177Z,556
2022-12-08T02:59:50.019Z,556.4
2022-12-08T03:00:51.796Z,556.5
2022-12-08T03:01:54.202Z,556.6
2022-12-08T03:02:56.538Z,556.6
2022-12-08T03:03:58.579Z,556.1
2022-12-08T03:05:00.402Z,555.5
2022-12-08T03:06:02.475Z,555.4
2022-12-08T03:07:04.196Z,555
2022-12-08T03:08:06.523Z,555.1
2022-12-08T03:09:08.340Z,555.4
2022-12-08T03:10:10.083Z,555.4
2022-12-08T03:11:11.899Z,555.8
2022-12-08T03:12:13.858Z,556.1
2022-12-08T03:13:15.609Z,556.8
2022-12-08T03:14:17.486Z,557
2022-12-08T03:15:19.306Z,556.6
2022-12-08T03:16:24.166Z,556.2
2022-12-08T03:17:25.971Z,556.2
2022-12-08T03:18:27.828Z,555.6
2022-12-08T03:19:29.780Z,556.1
2022-12-08T03:20:31.530Z,555.7
2022-12-08T03:21:33.276Z,556
2022-12-08T03:22:35.638Z,556
2022-12-08T03:23:37.586Z,556.2
2022-12-08T03:24:39.431Z,556.1
2022-12-08T03:25:41.385Z,556.4
2022-12-08T03:26:43.166Z,556.2
2022-12-08T03:27:45.294Z,556.6
2022-12-08T03:28:47.048Z,557
2022-12-08T03:29:48.721Z,557.4
2022-12-08T03:30:50.852Z,557.1
2022-12-08T03:31:52.539Z,557.1
2022-12-08T03:32:54.438Z,557
2022-12-08T03:33:56.185Z,556.5
2022-12-08T03:34:57.857Z,556.2
2022-12-08T03:35:59.515Z,556.4
2022-12-08T03:37:01.307Z,556.1
2022-12-08T03:38:03.185Z,556.4
2022-12-08T03:39:04.823Z,556.7
2022-12-08T03:40:08.115Z,556.4
2022-12-08T03:41:10.000Z,556.5
2022-12-08T03:42:11.705Z,556.8
2022-12-08T03:43:13.448Z,556.6
2022-12-08T03:44:15.327Z,556.5
2022-12-08T03:45:17.046Z,556.4
2022-12-08T03:46:19.182Z,556.5
2022-12-08T03:47:21.008Z,556.2
2022-12-08T03:48:22.830Z,556.1
2022-12-08T03:49:24.564Z,555.7
2022-12-08T03:50:26.301Z,556
2022-12-08T03:51:28.047Z,556.3
2022-12-08T03:52:29.771Z,556.4
2022-12-08T03:53:31.359Z,556.5
2022-12-08T03:54:33.101Z,556.5
2022-12-08T03:55:34.755Z,556.1
2022-12-08T03:56:39.529Z,555.6
2022-12-08T03:57:41.234Z,555.3
2022-12-08T03:58:43.045Z,555.5
2022-12-08T03:59:44.641Z,555.7
2022-12-08T04:00:46.397Z,555.5
2022-12-08T04:01:48.679Z,556
2022-12-08T04:02:50.804Z,556.2
2022-12-08T04:03:52.817Z,555.8
2022-12-08T04:04:54.476Z,556.2
2022-12-08T04:05:56.121Z,555.8
2022-12-08T04:06:57.922Z,555.5
2022-12-08T04:07:59.969Z,555.3
2022-12-08T04:09:01.752Z,555.4
2022-12-08T04:10:05.425Z,555.5
2022-12-08T04:11:07.402Z,555.5
2022-12-08T04:12:09.064Z,555.3
2022-12-08T04:13:10.713Z,554.9
2022-12-08T04:14:12.560Z,555.1
2022-12-08T04:15:14.394Z,555
2022-12-08T04:16:16.710Z,554.9
2022-12-08T04:17:18.578Z,555.1
2022-12-08T04:18:20.372Z,555.3
2022-12-08T04:19:22.200Z,555.5
2022-12-08T04:20:23.836Z,555
2022-12-08T04:21:25.586Z,554.2
2022-12-08T04:22:28.004Z,554.4
2022-12-08T04:23:29.769Z,554.8
2022-12-08T04:24:31.651Z,554.9
2022-12-08T04:25:33.508Z,555.1
2022-12-08T04:26:35.169Z,554.4
2022-12-08T04:27:37.099Z,554.5
2022-12-08T04:28:38.870Z,555.1
2022-12-08T04:29:40.704Z,555.1
2022-12-08T04:30:42.370Z,555.3
2022-12-08T04:31:44.558Z,555
2022-12-08T04:32:48.263Z,554.5
2022-12-08T04:33:50.169Z,554.8
2022-12-08T04:34:51.919Z,554.8
2022-12-08T04:35:53.842Z,555.4
2022-12-08T04:36:55.696Z,555
2022-12-08T04:37:57.471Z,554.8
2022-12-08T04:38:59.300Z,554.8
2022-12-08T04:40:01.625Z,554.4
2022-12-08T04:41:03.617Z,554.9
2022-12-08T04:42:05.563Z,555.1
2022-12-08T04:43:07.425Z,554.5
2022-12-08T04:44:09.257Z,554
2022-12-08T04:45:11.013Z,553.7
2022-12-08T04:46:13.184Z,553.6
2022-12-08T04:47:15.546Z,554.4
2022-12-08T04:48:17.383Z,554.2
2022-12-08T04:49:19.157Z,554.3
2022-12-08T04:50:20.922Z,554.3
2022-12-08T04:51:22.625Z,554.2
2022-12-08T04:52:24.671Z,554.1
2022-12-08T04:53:26.343Z,553.8
2022-12-08T04:54:28.094Z,553.6
2022-12-08T04:55:29.941Z,553.6
2022-12-08T04:56:31.586Z,553.7
2022-12-08T04:57:33.235Z,553.7
2022-12-08T04:58:35.163Z,553.7
2022-12-08T04:59:36.829Z,553.8
2022-12-08T05:00:38.664Z,553.6
2022-12-08T05:01:41.277Z,553.3
2022-12-08T05:02:43.844Z,553.5
2022-12-08T05:03:45.638Z,553.6
2022-12-08T05:04:47.423Z,553.1
2022-12-08T05:05:49.160Z,553.4
2022-12-08T05:06:51.090Z,553.2
2022-12-08T05:07:53.370Z,553.2
2022-12-08T05:08:55.101Z,553.1
2022-12-08T05:09:56.956Z,553.3
2022-12-08T05:10:58.910Z,552.9
2022-12-08T05:12:00.865Z,553
2022-12-08T05:13:02.595Z,553.2
2022-12-08T05:14:04.347Z,553
2022-12-08T05:15:06.092Z,553
2022-12-08T05:16:08.262Z,552.6
2022-12-08T05:17:10.613Z,552.2
2022-12-08T05:18:12.392Z,552.4
2022-12-08T05:19:14.209Z,552.6
2022-12-08T05:20:15.934Z,552.9
2022-12-08T05:21:17.906Z,552.8
2022-12-08T05:22:19.554Z,552.7
2022-12-08T05:23:21.406Z,552.5
2022-12-08T05:24:23.153Z,552.2
2022-12-08T05:25:25.039Z,552.3
2022-12-08T05:26:26.863Z,552.6
2022-12-08T05:27:28.580Z,552.6
2022-12-08T05:28:44.548Z,552.3
2022-12-08T05:29:46.352Z,552.1
2022-12-08T05:30:48.389Z,552.1
2022-12-08T05:31:50.776Z,551.9
2022-12-08T05:32:52.641Z,552.4
2022-12-08T05:33:58.414Z,552.5
2022-12-08T05:35:02.732Z,552.1
2022-12-08T05:36:04.632Z,551.6
2022-12-08T05:37:06.525Z,551.1
2022-12-08T05:38:08.212Z,551.4
2022-12-08T05:39:09.948Z,551.9
2022-12-08T05:40:12.013Z,552.3
2022-12-08T05:41:13.970Z,552.1
2022-12-08T05:42:24.886Z,551.4
2022-12-08T05:43:27.390Z,550.8
2022-12-08T05:44:29.165Z,550.9
2022-12-08T05:45:31.104Z,550.8
2022-12-08T05:46:32.730Z,550.5
2022-12-08T05:47:36.902Z,550.4
2022-12-08T05:48:38.886Z,550.2
2022-12-08T05:49:40.770Z,550.3
2022-12-08T05:50:42.579Z,550.4
2022-12-08T05:51:44.452Z,550.1
2022-12-08T05:52:46.263Z,550.1
2022-12-08T05:53:48.060Z,549.9
2022-12-08T05:54:49.713Z,550
2022-12-08T05:55:51.369Z,551.3
2022-12-08T05:56:53.076Z,551.7
2022-12-08T05:57:54.825Z,551.7
2022-12-08T05:58:57.716Z,551.2
2022-12-08T05:59:59.467Z,550.7
2022-12-08T06:01:01.290Z,550.3
2022-12-08T06:02:03.824Z,550.3
2022-12-08T06:03:06.643Z,550.8
2022-12-08T06:04:08.576Z,551.2
2022-12-08T06:05:10.432Z,551.1
2022-12-08T06:06:12.275Z,550.7
2022-12-08T06:07:16.863Z,550.4
2022-12-08T06:08:19.087Z,550.4
2022-12-08T06:09:21.007Z,550.7
2022-12-08T06:10:22.877Z,550.7
2022-12-08T06:11:24.818Z,550.8
2022-12-08T06:12:26.550Z,551
2022-12-08T06:13:28.433Z,551.2
2022-12-08T06:14:30.268Z,551.6
2022-12-08T06:15:32.295Z,551.2
2022-12-08T06:16:37.160Z,551.2
2022-12-08T06:17:39.063Z,550.9
2022-12-08T06:18:40.769Z,550.2
2022-12-08T06:19:42.585Z,549.4
2022-12-08T06:20:44.538Z,549.1
2022-12-08T06:21:46.388Z,549.2
2022-12-08T06:22:48.266Z,549.1
2022-12-08T06:23:50.300Z,549.1
2022-12-08T06:24:52.367Z,548.8
2022-12-08T06:25:53.986Z,548.7
2022-12-08T06:26:55.828Z,549.2
2022-12-08T06:27:57.575Z,549.2
2022-12-08T06:28:59.265Z,548.9
2022-12-08T06:30:01.644Z,549
2022-12-08T06:31:03.689Z,548.2
2022-12-08T06:32:05.914Z,547.6
2022-12-08T06:33:07.862Z,547.3
2022-12-08T06:34:09.716Z,547.2
2022-12-08T06:35:11.417Z,548.2
2022-12-08T06:36:13.103Z,548.7
2022-12-08T06:37:15.048Z,548.7
2022-12-08T06:38:16.683Z,548.2
2022-12-08T06:39:18.496Z,547.6
2022-12-08T06:40:20.296Z,547.4
2022-12-08T06:41:22.035Z,547.1
2022-12-08T06:42:23.891Z,547.5
2022-12-08T06:43:25.555Z,547.8
2022-12-08T06:44:27.283Z,548
2022-12-08T06:45:29.297Z,547.9
2022-12-08T06:46:31.547Z,548.1
2022-12-08T06:47:33.652Z,548.1
2022-12-08T06:48:35.309Z,548.3
2022-12-08T06:49:37.141Z,548.6
2022-12-08T06:50:38.797Z,549
2022-12-08T06:51:40.577Z,549
2022-12-08T06:53:06.056Z,549
2022-12-08T06:54:07.827Z,549.4
2022-12-08T06:55:09.510Z,549.3
2022-12-08T06:56:11.190Z,549.3
2022-12-08T06:57:12.858Z,549.2
2022-12-08T06:58:14.625Z,549.1
2022-12-08T06:59:16.433Z,549.4
2022-12-08T07:00:18.097Z,549.6
2022-12-08T07:01:20.517Z,550.1
2022-12-08T07:02:22.492Z,549.7
2022-12-08T07:03:24.355Z,549.4
2022-12-08T07:04:26.087Z,548.6
2022-12-08T07:05:27.853Z,549.1
2022-12-08T07:06:29.799Z,549.1
2022-12-08T07:07:34.628Z,548.8
2022-12-08T07:08:36.460Z,548.4
2022-12-08T07:09:38.317Z,548
2022-12-08T07:10:39.947Z,548.2
2022-12-08T07:11:43.384Z,549.3
2022-12-08T07:12:45.090Z,549.5
2022-12-08T07:13:46.832Z,550
2022-12-08T07:14:48.557Z,549.5
2022-12-08T07:15:50.435Z,548.8
2022-12-08T07:16:52.743Z,548.1
2022-12-08T07:18:01.174Z,548
2022-12-08T07:19:03.165Z,548.2
2022-12-08T07:20:06.502Z,548.2
2022-12-08T07:21:08.556Z,547.7
2022-12-08T07:22:10.344Z,547.7
2022-12-08T07:23:11.957Z,548
2022-12-08T07:24:13.931Z,547.8
2022-12-08T07:25:15.611Z,547.8
2022-12-08T07:26:17.473Z,547.6
2022-12-08T07:27:19.085Z,547.6
2022-12-08T07:28:20.828Z,547.3
2022-12-08T07:29:27.096Z,547.3
2022-12-08T07:30:29.800Z,546.4
2022-12-08T07:31:31.816Z,546.6
2022-12-08T07:32:33.654Z,546.3
2022-12-08T07:33:35.402Z,546.2
2022-12-08T07:34:37.096Z,545.8
2022-12-08T07:35:38.812Z,545.5
2022-12-08T07:36:40.552Z,545.3
2022-12-08T07:37:42.351Z,545.2
2022-12-08T07:38:44.246Z,544.9
2022-12-08T07:39:46.137Z,544.9
2022-12-08T07:40:47.997Z,544.5
2022-12-08T07:41:49.826Z,544.5
2022-12-08T07:42:51.645Z,544.2
2022-12-08T07:43:53.409Z,544.3
2022-12-08T07:44:55.245Z,544.2
2022-12-08T07:45:57.558Z,544.6
2022-12-08T07:46:59.358Z,544.7
2022-12-08T07:48:01.565Z,545.3
2022-12-08T07:49:03.358Z,545.3
2022-12-08T07:50:06.353Z,545.1
2022-12-08T07:51:08.294Z,545.1
2022-12-08T07:52:10.235Z,545.1
2022-12-08T07:53:12.349Z,545.1
2022-12-08T07:54:14.142Z,545.1
2022-12-08T07:55:15.900Z,545.3
2022-12-08T07:56:17.784Z,545.4
2022-12-08T07:57:19.530Z,545.1
2022-12-08T07:58:21.317Z,545.7
2022-12-08T07:59:23.295Z,545.7
2022-12-08T08:00:25.522Z,545.7
2022-12-08T08:01:28.407Z,545.5
2022-12-08T08:02:30.921Z,545.8
2022-12-08T08:03:32.754Z,546
2022-12-08T08:04:34.831Z,545.7
2022-12-08T08:05:36.679Z,545.4
2022-12-08T08:06:38.602Z,544.9
2022-12-08T08:07:40.790Z,544.5
2022-12-08T08:08:42.802Z,544.7
2022-12-08T08:09:44.558Z,544.9
2022-12-08T08:10:46.409Z,545.1
2022-12-08T08:12:33.334Z,544.9
2022-12-08T08:13:35.199Z,544.7
2022-12-08T08:14:36.812Z,545.2
2022-12-08T08:15:39.209Z,545.3
2022-12-08T08:16:41.364Z,545.2
2022-12-08T08:17:43.211Z,545.5
2022-12-08T08:18:44.932Z,545.4
2022-12-08T08:19:46.776Z,544.9
2022-12-08T08:20:48.542Z,545.1
2022-12-08T08:21:50.176Z,545.1
2022-12-08T08:22:52.017Z,545.4
2022-12-08T08:23:53.777Z,545.5
2022-12-08T08:24:55.511Z,545.4
2022-12-08T08:25:57.366Z,545.5
2022-12-08T08:26:59.265Z,545.4
2022-12-08T08:28:00.884Z,545.7
2022-12-08T08:29:02.813Z,545.4
2022-12-08T08:30:05.862Z,545.1
2022-12-08T08:31:08.158Z,544.9
2022-12-08T08:32:10.111Z,544.9
2022-12-08T08:33:11.856Z,545.2
2022-12-08T08:34:13.637Z,545.2
2022-12-08T08:35:15.381Z,545.2
2022-12-08T08:36:17.002Z,545.1
2022-12-08T08:37:19.042Z,545
2022-12-08T08:38:20.714Z,545.1
2022-12-08T08:39:22.551Z,544.9
2022-12-08T08:40:24.584Z,545.5
2022-12-08T08:41:26.448Z,545.3
2022-12-08T08:42:28.208Z,545.7
2022-12-08T08:43:39.297Z,545.6
2022-12-08T08:44:41.017Z,545.6
2022-12-08T08:45:42.809Z,545.9
2022-12-08T08:46:44.965Z,546.4
2022-12-08T08:47:46.663Z,546.2
2022-12-08T08:48:48.616Z,546.7
2022-12-08T08:49:50.980Z,546.3
2022-12-08T08:50:52.650Z,546.3
2022-12-08T08:51:54.478Z,546.3
2022-12-08T08:52:56.228Z,546.5
2022-12-08T08:53:58.075Z,546.4
2022-12-08T08:54:59.921Z,546.5
2022-12-08T08:56:03.619Z,546.4
2022-12-08T08:57:05.465Z,546.3
2022-12-08T08:58:07.209Z,546.1
2022-12-08T08:59:09.118Z,546
2022-12-08T09:00:10.989Z,546
2022-12-08T09:01:13.249Z,546.3
2022-12-08T09:02:18.193Z,546.3
2022-12-08T09:03:20.146Z,546.6
2022-12-08T09:04:22.245Z,546.4
2022-12-08T09:05:24.056Z,546.3
2022-12-08T09:06:26.278Z,546.1
2022-12-08T09:07:28.095Z,546.4
2022-12-08T09:08:30.288Z,546.9
2022-12-08T09:09:32.099Z,546.9
2022-12-08T09:10:33.862Z,547.2
2022-12-08T09:11:35.676Z,547.3
2022-12-08T09:12:37.500Z,547.8
2022-12-08T09:13:39.265Z,547.8
2022-12-08T09:14:41.129Z,547.8
2022-12-08T09:15:43.298Z,547.9
2022-12-08T09:16:45.568Z,548
2022-12-08T09:17:47.303Z,548.2
2022-12-08T09:18:49.009Z,548.5
2022-12-08T09:19:51.777Z,548.6
2022-12-08T09:20:53.491Z,549
2022-12-08T09:21:57.943Z,549.3
2022-12-08T09:22:59.625Z,549.3
2022-12-08T09:24:01.441Z,549.2
2022-12-08T09:25:03.196Z,549.1
2022-12-08T09:26:04.973Z,549.2
2022-12-08T09:27:06.824Z,549.3
2022-12-08T09:28:08.642Z,549.3
2022-12-08T09:29:10.390Z,549.7
2022-12-08T09:30:12.630Z,549.7
2022-12-08T09:31:14.960Z,549.4
2022-12-08T09:32:16.965Z,549.9
2022-12-08T09:33:18.814Z,550.4
2022-12-08T09:34:20.652Z,550.2
2022-12-08T09:35:22.276Z,550.7
2022-12-08T09:36:24.145Z,550.4
2022-12-08T09:37:25.865Z,550
2022-12-08T09:38:27.692Z,550.4
2022-12-08T09:39:29.380Z,550.5
2022-12-08T09:40:31.309Z,550.9
2022-12-08T09:41:48.858Z,551
2022-12-08T09:42:50.476Z,551.1
2022-12-08T09:43:52.223Z,551.2
2022-12-08T09:44:53.918Z,551
2022-12-08T09:45:55.872Z,550.9
2022-12-08T09:46:58.469Z,550.5
2022-12-08T09:48:00.387Z,550.6
2022-12-08T09:49:02.104Z,550.4
2022-12-08T09:50:05.614Z,550.5
2022-12-08T09:51:07.545Z,550.2
2022-12-08T09:52:09.838Z,550.3
2022-12-08T09:53:11.797Z,550.2
2022-12-08T09:54:13.948Z,550.4
2022-12-08T09:55:15.799Z,550.4
2022-12-08T09:56:17.631Z,550.2
2022-12-08T09:57:19.376Z,550.4
2022-12-08T09:58:21.138Z,550.5
2022-12-08T09:59:22.957Z,550.4
2022-12-08T10:00:24.836Z,549.8
2022-12-08T10:01:27.033Z,550.3
2022-12-08T10:02:29.248Z,550.5
2022-12-08T10:03:30.961Z,551.1
2022-12-08T10:04:33.707Z,551.5
2022-12-08T10:05:35.878Z,551.9
2022-12-08T10:06:37.849Z,552.3
2022-12-08T10:07:39.978Z,552.7
2022-12-08T10:08:41.684Z,553.1
2022-12-08T10:09:43.428Z,553.1
2022-12-08T10:10:45.205Z,553.3
2022-12-08T10:11:46.906Z,553.3
2022-12-08T10:12:48.670Z,553.4
2022-12-08T10:13:50.521Z,553.4
2022-12-08T10:14:52.367Z,553.5
2022-12-08T10:15:54.468Z,553.8
2022-12-08T10:16:56.881Z,553.6
2022-12-08T10:17:58.627Z,553.8
2022-12-08T10:19:00.395Z,553.7
2022-12-08T10:20:03.996Z,554
2022-12-08T10:21:06.060Z,553.9
2022-12-08T10:22:07.882Z,554
2022-12-08T10:23:09.539Z,554.1
2022-12-08T10:24:14.109Z,553.8
2022-12-08T10:25:15.947Z,553.9
2022-12-08T10:26:17.736Z,554
2022-12-08T10:27:19.527Z,554.1
2022-12-08T10:28:21.428Z,553.9
2022-12-08T10:29:23.229Z,554.2
2022-12-08T10:30:25.029Z,554.1
2022-12-08T10:31:27.230Z,554.4
2022-12-08T10:32:29.067Z,554.6
2022-12-08T10:33:30.785Z,554.8
2022-12-08T10:34:32.735Z,554.8
2022-12-08T10:35:34.515Z,555
2022-12-08T10:36:36.438Z,555.2
2022-12-08T10:37:38.147Z,555
2022-12-08T10:38:40.034Z,554.9
2022-12-08T10:39:41.788Z,554.8
2022-12-08T10:40:46.320Z,554.5
2022-12-08T10:41:48.086Z,554.5
2022-12-08T10:42:49.817Z,554.3
2022-12-08T10:43:51.561Z,555.1
2022-12-08T10:44:53.316Z,555.3
2022-12-08T10:45:55.140Z,555.6
2022-12-08T10:46:57.429Z,555.7
2022-12-08T10:47:59.183Z,555.9
2022-12-08T10:49:01.110Z,556.2
2022-12-08T10:50:04.683Z,556.8
2022-12-08T10:51:06.643Z,556.7
2022-12-08T10:52:08.430Z,557
2022-12-08T10:53:10.237Z,557.2
2022-12-08T10:54:11.816Z,557.1
2022-12-08T10:55:13.741Z,557.2
2022-12-08T10:56:15.662Z,557.4
2022-12-08T10:57:17.444Z,557.4
2022-12-08T10:58:19.136Z,557.6
2022-12-08T10:59:20.911Z,557.5
2022-12-08T11:00:22.872Z,557.4
2022-12-08T11:01:24.877Z,557.2
2022-12-08T11:02:27.309Z,557.2
2022-12-08T11:03:29.242Z,557.1
2022-12-08T11:04:31.092Z,557.6
2022-12-08T11:05:32.944Z,557.3
2022-12-08T11:06:34.775Z,557.6
2022-12-08T11:07:37.176Z,557.8
2022-12-08T11:08:38.955Z,558.1
2022-12-08T11:09:40.875Z,558
2022-12-08T11:10:43.133Z,558.2
2022-12-08T11:11:44.783Z,558.4
2022-12-08T11:12:46.557Z,558.4
2022-12-08T11:13:48.378Z,558.4
2022-12-08T11:14:50.210Z,558.2
2022-12-08T11:15:52.065Z,558.1
2022-12-08T11:16:54.471Z,558.3
2022-12-08T11:17:58.218Z,558.2
2022-12-08T11:18:59.877Z,558.3
2022-12-08T11:20:02.983Z,558.9
2022-12-08T11:21:05.101Z,558.6
2022-12-08T11:22:06.855Z,559.1
2022-12-08T11:23:08.595Z,559.3
2022-12-08T11:24:10.482Z,559.6
2022-12-08T11:25:12.512Z,559.9
2022-12-08T11:26:14.272Z,560.6
2022-12-08T11:27:15.999Z,560.3
2022-12-08T11:28:17.779Z,560.9
2022-12-08T11:29:19.402Z,560.9
2022-12-08T11:30:21.651Z,561.2
2022-12-08T11:31:23.942Z,561.1
2022-12-08T11:32:25.986Z,560.9
2022-12-08T11:33:27.738Z,561
2022-12-08T11:34:29.566Z,561
2022-12-08T11:35:31.381Z,561.5
2022-12-08T11:36:33.957Z,561.9
2022-12-08T11:37:36.357Z,562.2
2022-12-08T11:38:38.207Z,562.1
2022-12-08T11:39:39.954Z,562.3
2022-12-08T11:40:42.220Z,562.6
2022-12-08T11:41:44.668Z,562.4
2022-12-08T11:42:46.383Z,562.6
2022-12-08T11:43:48.172Z,562.4
2022-12-08T11:44:50.610Z,561.9
2022-12-08T11:45:52.859Z,561.6
2022-12-08T11:46:54.847Z,561.2
2022-12-08T11:47:56.804Z,561.5
2022-12-08T11:49:08.236Z,561.3
2022-12-08T11:50:11.419Z,561.7
2022-12-08T11:51:14.038Z,561.9
2022-12-08T11:52:16.115Z,562.3
2022-12-08T11:53:18.276Z,562.3
2022-12-08T11:54:20.091Z,562.5
2022-12-08T11:55:22.344Z,562.5
2022-12-08T11:56:23.987Z,562.6
2022-12-08T11:57:25.791Z,562.2
2022-12-08T11:58:28.047Z,562.7
2022-12-08T11:59:30.009Z,562.5
2022-12-08T12:00:31.784Z,563.1
2022-12-08T12:01:43.293Z,563.6
2022-12-08T12:02:45.564Z,563.5
2022-12-08T12:03:48.302Z,563.3
2022-12-08T12:04:50.247Z,563.4
2022-12-08T12:06:55.949Z,563.1
2022-12-08T12:07:58.228Z,563.3
2022-12-08T12:09:00.121Z,563.1
2022-12-08T12:10:02.979Z,563.9
2022-12-08T12:11:05.019Z,564.1
2022-12-08T12:12:07.487Z,564.1
2022-12-08T12:13:09.400Z,564.3
2022-12-08T12:14:11.213Z,564.3
2022-12-08T12:15:13.488Z,564
2022-12-08T12:16:15.572Z,564
2022-12-08T12:17:17.400Z,563.8
2022-12-08T12:18:19.228Z,563.7
2022-12-08T12:19:21.073Z,563.7
2022-12-08T12:20:22.762Z,563.6
2022-12-08T12:21:24.666Z,563.9
2022-12-08T12:22:26.352Z,563.9
2022-12-08T12:23:28.065Z,563.8
2022-12-08T12:24:36.685Z,564
2022-12-08T12:25:38.483Z,563.8
2022-12-08T12:26:40.389Z,563.5
2022-12-08T12:27:42.115Z,563.4
2022-12-08T12:28:43.913Z,562.9
2022-12-08T12:29:49.799Z,563.4
2022-12-08T12:30:54.249Z,563.6
2022-12-08T12:31:56.161Z,563.5
2022-12-08T12:32:57.879Z,563.4
2022-12-08T12:33:59.783Z,563.5
2022-12-08T12:35:01.659Z,563.7
2022-12-08T12:36:03.255Z,564.2
2022-12-08T12:37:04.979Z,564.3
2022-12-08T12:38:07.008Z,564.3
2022-12-08T12:39:08.795Z,564.3
2022-12-08T12:40:10.769Z,564.5
2022-12-08T12:41:12.490Z,564.4
2022-12-08T12:42:14.158Z,564.5
2022-12-08T12:43:16.113Z,564.6
2022-12-08T12:44:17.960Z,564.6
2022-12-08T12:45:19.952Z,564.8
2022-12-08T12:46:22.088Z,564.8
2022-12-08T12:47:24.026Z,565
2022-12-08T12:48:25.803Z,565.1
2022-12-08T12:49:27.724Z,564.9
2022-12-08T12:50:29.525Z,565.1
2022-12-08T12:51:31.136Z,564.8
2022-12-08T12:52:32.960Z,565.1
2022-12-08T12:53:34.619Z,565.3
2022-12-08T12:54:36.470Z,565.6
2022-12-08T12:55:38.322Z,565.8
2022-12-08T12:56:40.101Z,565.6
2022-12-08T12:57:41.871Z,565.1
2022-12-08T12:58:43.487Z,564.9
2022-12-08T12:59:56.291Z,564.9
2022-12-08T13:00:58.578Z,564.8
2022-12-08T13:02:00.930Z,565.1
2022-12-08T13:03:03.309Z,565.2
2022-12-08T13:04:05.122Z,565.4
2022-12-08T13:05:07.153Z,565.2
2022-12-08T13:06:15.441Z,565
2022-12-08T13:07:17.397Z,565.3
2022-12-08T13:08:19.406Z,565.4
2022-12-08T13:09:21.186Z,565.8
2022-12-08T13:10:22.970Z,566.1
2022-12-08T13:11:24.816Z,566.3
2022-12-08T13:12:26.640Z,566
2022-12-08T13:13:28.391Z,565.9
2022-12-08T13:14:30.105Z,566.2
2022-12-08T13:15:31.822Z,566.3
2022-12-08T13:16:33.903Z,566.7
2022-12-08T13:17:35.848Z,566.4
2022-12-08T13:18:37.640Z,566.7
2022-12-08T13:19:39.342Z,566.3
2022-12-08T13:20:41.144Z,566.4
2022-12-08T13:21:43.020Z,565.6
2022-12-08T13:22:44.701Z,565.6
2022-12-08T13:23:46.497Z,565.3
2022-12-08T13:24:48.382Z,565.7
2022-12-08T13:25:50.178Z,566.1
2022-12-08T13:26:51.861Z,566.4
2022-12-08T13:27:53.783Z,566.5